sensor_id;sensor_type;location;lat;lon;timestamp;P1;durP1;ratioP1;P2;durP2;ratioP2
19861;SDS011;10093;48.148;8.542;2023-03-08T00:01:36;17.55;;;9.05;;
19861;SDS011;10093;48.148;8.542;2023-03-08T00:04:01;15.70;;;8.43;;
19861;SDS011;10093;48.148;8.542;2023-03-08T00:06:27;15.80;;;8.35;;
19861;SDS011;10093;48.148;8.542;2023-03-08T00:08:57;19.23;;;8.32;;
19861;SDS011;10093;48.148;8.542;2023-03-08T00:11:24;15.95;;;8.25;;
19861;SDS011;10093;48.148;8.542;2023-03-08T00:13:50;19.45;;;8.13;;
19861;SDS011;10093;48.148;8.542;2023-03-08T00:16:16;14.40;;;7.68;;
19861;SDS011;10093;48.148;8.542;2023-03-08T00:18:42;17.92;;;8.07;;
19861;SDS011;10093;48.148;8.542;2023-03-08T00:21:12;19.33;;;8.07;;
19861;SDS011;10093;48.148;8.542;2023-03-08T00:23:39;17.10;;;7.93;;
19861;SDS011;10093;48.148;8.542;2023-03-08T00:26:05;13.93;;;7.63;;
19861;SDS011;10093;48.148;8.542;2023-03-08T00:28:31;16.33;;;7.82;;
19861;SDS011;10093;48.148;8.542;2023-03-08T00:30:58;16.60;;;7.75;;
19861;SDS011;10093;48.148;8.542;2023-03-08T00:33:25;15.18;;;7.68;;
19861;SDS011;10093;48.148;8.542;2023-03-08T00:35:58;16.38;;;7.75;;
19861;SDS011;10093;48.148;8.542;2023-03-08T00:38:26;13.20;;;7.53;;
19861;SDS011;10093;48.148;8.542;2023-03-08T00:40:52;15.05;;;7.43;;
19861;SDS011;10093;48.148;8.542;2023-03-08T00:43:18;15.32;;;8.07;;
19861;SDS011;10093;48.148;8.542;2023-03-08T00:45:44;15.73;;;7.97;;
19861;SDS011;10093;48.148;8.542;2023-03-08T00:48:10;15.32;;;7.97;;
19861;SDS011;10093;48.148;8.542;2023-03-08T00:50:35;16.77;;;8.07;;
19861;SDS011;10093;48.148;8.542;2023-03-08T00:53:01;13.82;;;7.47;;
19861;SDS011;10093;48.148;8.542;2023-03-08T00:55:27;19.63;;;7.82;;
19861;SDS011;10093;48.148;8.542;2023-03-08T00:57:53;16.50;;;7.43;;
19861;SDS011;10093;48.148;8.542;2023-03-08T01:00:19;16.48;;;7.72;;
19861;SDS011;10093;48.148;8.542;2023-03-08T01:02:44;14.30;;;7.38;;
19861;SDS011;10093;48.148;8.542;2023-03-08T01:05:10;15.40;;;7.78;;
19861;SDS011;10093;48.148;8.542;2023-03-08T01:07:35;16.38;;;8.27;;
19861;SDS011;10093;48.148;8.542;2023-03-08T01:10:01;16.70;;;7.28;;
19861;SDS011;10093;48.148;8.542;2023-03-08T01:12:30;17.08;;;8.60;;
19861;SDS011;10093;48.148;8.542;2023-03-08T01:14:56;19.50;;;8.70;;
19861;SDS011;10093;48.148;8.542;2023-03-08T01:17:22;18.90;;;8.60;;
19861;SDS011;10093;48.148;8.542;2023-03-08T01:19:48;15.27;;;8.18;;
19861;SDS011;10093;48.148;8.542;2023-03-08T01:22:13;14.68;;;7.93;;
19861;SDS011;10093;48.148;8.542;2023-03-08T01:24:42;14.68;;;7.45;;
19861;SDS011;10093;48.148;8.542;2023-03-08T01:27:09;15.90;;;7.90;;
19861;SDS011;10093;48.148;8.542;2023-03-08T01:29:34;17.88;;;8.80;;
19861;SDS011;10093;48.148;8.542;2023-03-08T01:32:00;17.58;;;8.45;;
19861;SDS011;10093;48.148;8.542;2023-03-08T01:34:26;16.42;;;8.60;;
19861;SDS011;10093;48.148;8.542;2023-03-08T01:36:51;16.08;;;8.40;;
19861;SDS011;10093;48.148;8.542;2023-03-08T01:39:17;20.25;;;8.57;;
19861;SDS011;10093;48.148;8.542;2023-03-08T01:41:42;22.08;;;9.15;;
19861;SDS011;10093;48.148;8.542;2023-03-08T01:44:16;19.60;;;9.30;;
19861;SDS011;10093;48.148;8.542;2023-03-08T01:46:43;18.60;;;9.55;;
19861;SDS011;10093;48.148;8.542;2023-03-08T01:54:25;20.30;;;9.43;;
19861;SDS011;10093;48.148;8.542;2023-03-08T01:56:54;18.67;;;9.07;;
19861;SDS011;10093;48.148;8.542;2023-03-08T01:59:24;17.85;;;8.57;;
19861;SDS011;10093;48.148;8.542;2023-03-08T02:01:50;18.50;;;9.20;;
19861;SDS011;10093;48.148;8.542;2023-03-08T02:04:16;17.80;;;8.85;;
19861;SDS011;10093;48.148;8.542;2023-03-08T02:06:42;16.33;;;8.82;;
19861;SDS011;10093;48.148;8.542;2023-03-08T02:09:08;16.90;;;8.77;;
19861;SDS011;10093;48.148;8.542;2023-03-08T02:11:35;17.90;;;8.05;;
19861;SDS011;10093;48.148;8.542;2023-03-08T02:14:02;20.80;;;8.40;;
19861;SDS011;10093;48.148;8.542;2023-03-08T02:16:27;17.70;;;8.98;;
19861;SDS011;10093;48.148;8.542;2023-03-08T02:18:55;17.23;;;8.40;;
19861;SDS011;10093;48.148;8.542;2023-03-08T02:21:26;16.50;;;9.00;;
19861;SDS011;10093;48.148;8.542;2023-03-08T02:23:54;15.57;;;8.60;;
19861;SDS011;10093;48.148;8.542;2023-03-08T02:26:20;17.17;;;8.95;;
19861;SDS011;10093;48.148;8.542;2023-03-08T02:28:46;17.65;;;8.75;;
19861;SDS011;10093;48.148;8.542;2023-03-08T02:31:12;19.45;;;8.93;;
19861;SDS011;10093;48.148;8.542;2023-03-08T02:33:39;18.58;;;8.63;;
19861;SDS011;10093;48.148;8.542;2023-03-08T02:36:05;19.98;;;9.13;;
19861;SDS011;10093;48.148;8.542;2023-03-08T02:38:32;19.83;;;9.20;;
19861;SDS011;10093;48.148;8.542;2023-03-08T02:40:58;18.08;;;9.20;;
19861;SDS011;10093;48.148;8.542;2023-03-08T02:43:24;17.42;;;9.13;;
19861;SDS011;10093;48.148;8.542;2023-03-08T02:45:50;14.93;;;7.63;;
19861;SDS011;10093;48.148;8.542;2023-03-08T02:48:16;16.42;;;8.57;;
19861;SDS011;10093;48.148;8.542;2023-03-08T02:50:42;16.40;;;8.55;;
19861;SDS011;10093;48.148;8.542;2023-03-08T02:53:08;20.50;;;9.25;;
19861;SDS011;10093;48.148;8.542;2023-03-08T02:55:34;19.52;;;9.60;;
19861;SDS011;10093;48.148;8.542;2023-03-08T02:58:04;18.15;;;8.77;;
19861;SDS011;10093;48.148;8.542;2023-03-08T03:00:31;17.73;;;8.48;;
19861;SDS011;10093;48.148;8.542;2023-03-08T03:02:57;16.58;;;8.48;;
19861;SDS011;10093;48.148;8.542;2023-03-08T03:05:22;21.08;;;9.45;;
19861;SDS011;10093;48.148;8.542;2023-03-08T03:07:48;20.42;;;9.60;;
19861;SDS011;10093;48.148;8.542;2023-03-08T03:10:14;22.42;;;10.45;;
19861;SDS011;10093;48.148;8.542;2023-03-08T03:12:40;19.02;;;10.73;;
19861;SDS011;10093;48.148;8.542;2023-03-08T03:15:06;19.20;;;10.20;;
19861;SDS011;10093;48.148;8.542;2023-03-08T03:17:33;22.58;;;10.25;;
19861;SDS011;10093;48.148;8.542;2023-03-08T03:20:01;18.40;;;9.20;;
19861;SDS011;10093;48.148;8.542;2023-03-08T03:22:29;23.52;;;10.30;;
19861;SDS011;10093;48.148;8.542;2023-03-08T03:24:54;18.38;;;9.65;;
19861;SDS011;10093;48.148;8.542;2023-03-08T03:27:20;16.42;;;9.20;;
19861;SDS011;10093;48.148;8.542;2023-03-08T03:29:46;18.45;;;9.55;;
19861;SDS011;10093;48.148;8.542;2023-03-08T03:32:11;22.95;;;10.23;;
19861;SDS011;10093;48.148;8.542;2023-03-08T03:34:37;20.73;;;10.45;;
19861;SDS011;10093;48.148;8.542;2023-03-08T03:37:03;22.63;;;10.70;;
19861;SDS011;10093;48.148;8.542;2023-03-08T03:39:29;23.63;;;11.30;;
19861;SDS011;10093;48.148;8.542;2023-03-08T03:41:58;21.20;;;10.43;;
19861;SDS011;10093;48.148;8.542;2023-03-08T03:44:24;21.52;;;10.05;;
19861;SDS011;10093;48.148;8.542;2023-03-08T03:46:50;21.00;;;11.25;;
19861;SDS011;10093;48.148;8.542;2023-03-08T03:49:15;22.90;;;11.40;;
19861;SDS011;10093;48.148;8.542;2023-03-08T03:51:41;21.58;;;11.13;;
19861;SDS011;10093;48.148;8.542;2023-03-08T03:54:06;22.73;;;10.88;;
19861;SDS011;10093;48.148;8.542;2023-03-08T03:56:32;24.08;;;11.68;;
19861;SDS011;10093;48.148;8.542;2023-03-08T03:58:58;21.60;;;11.10;;
19861;SDS011;10093;48.148;8.542;2023-03-08T04:01:25;23.00;;;10.93;;
19861;SDS011;10093;48.148;8.542;2023-03-08T04:03:52;24.80;;;11.18;;
19861;SDS011;10093;48.148;8.542;2023-03-08T04:06:23;24.52;;;10.82;;
19861;SDS011;10093;48.148;8.542;2023-03-08T04:08:55;22.77;;;11.83;;
19861;SDS011;10093;48.148;8.542;2023-03-08T04:11:26;25.17;;;11.75;;
19861;SDS011;10093;48.148;8.542;2023-03-08T04:13:53;24.52;;;11.68;;
19861;SDS011;10093;48.148;8.542;2023-03-08T04:18:46;24.88;;;12.93;;
19861;SDS011;10093;48.148;8.542;2023-03-08T04:21:12;22.02;;;11.85;;
19861;SDS011;10093;48.148;8.542;2023-03-08T04:23:38;23.17;;;11.48;;
19861;SDS011;10093;48.148;8.542;2023-03-08T04:26:04;25.08;;;11.95;;
19861;SDS011;10093;48.148;8.542;2023-03-08T04:28:31;24.77;;;12.10;;
19861;SDS011;10093;48.148;8.542;2023-03-08T04:30:58;23.52;;;11.95;;
19861;SDS011;10093;48.148;8.542;2023-03-08T04:33:23;24.65;;;12.90;;
19861;SDS011;10093;48.148;8.542;2023-03-08T04:35:49;24.10;;;12.10;;
19861;SDS011;10093;48.148;8.542;2023-03-08T04:38:15;24.20;;;12.50;;
19861;SDS011;10093;48.148;8.542;2023-03-08T04:40:48;27.13;;;13.35;;
19861;SDS011;10093;48.148;8.542;2023-03-08T04:43:29;29.98;;;13.23;;
19861;SDS011;10093;48.148;8.542;2023-03-08T04:45:56;27.83;;;14.18;;
19861;SDS011;10093;48.148;8.542;2023-03-08T04:48:22;27.05;;;13.68;;
19861;SDS011;10093;48.148;8.542;2023-03-08T04:50:51;29.90;;;14.57;;
19861;SDS011;10093;48.148;8.542;2023-03-08T04:53:24;34.88;;;14.60;;
19861;SDS011;10093;48.148;8.542;2023-03-08T04:55:50;28.48;;;13.85;;
19861;SDS011;10093;48.148;8.542;2023-03-08T04:58:17;33.10;;;15.30;;
19861;SDS011;10093;48.148;8.542;2023-03-08T05:00:43;32.65;;;15.30;;
19861;SDS011;10093;48.148;8.542;2023-03-08T05:03:08;30.17;;;14.55;;
19861;SDS011;10093;48.148;8.542;2023-03-08T05:05:34;29.13;;;14.70;;
19861;SDS011;10093;48.148;8.542;2023-03-08T05:08:00;28.30;;;14.68;;
19861;SDS011;10093;48.148;8.542;2023-03-08T05:10:30;31.15;;;15.63;;
19861;SDS011;10093;48.148;8.542;2023-03-08T05:12:56;27.17;;;14.60;;
19861;SDS011;10093;48.148;8.542;2023-03-08T05:15:22;58.33;;;24.90;;
19861;SDS011;10093;48.148;8.542;2023-03-08T05:17:48;27.63;;;14.68;;
19861;SDS011;10093;48.148;8.542;2023-03-08T05:20:14;36.33;;;17.70;;
19861;SDS011;10093;48.148;8.542;2023-03-08T05:22:40;118.93;;;57.10;;
19861;SDS011;10093;48.148;8.542;2023-03-08T05:25:06;191.63;;;96.38;;
19861;SDS011;10093;48.148;8.542;2023-03-08T05:27:33;79.65;;;42.33;;
19861;SDS011;10093;48.148;8.542;2023-03-08T05:30:03;30.05;;;15.23;;
19861;SDS011;10093;48.148;8.542;2023-03-08T05:32:29;32.20;;;15.65;;
19861;SDS011;10093;48.148;8.542;2023-03-08T05:34:54;31.17;;;15.00;;
19861;SDS011;10093;48.148;8.542;2023-03-08T05:37:20;31.75;;;15.40;;
19861;SDS011;10093;48.148;8.542;2023-03-08T05:39:49;29.58;;;15.18;;
19861;SDS011;10093;48.148;8.542;2023-03-08T05:42:15;32.15;;;15.40;;
19861;SDS011;10093;48.148;8.542;2023-03-08T05:44:41;34.63;;;16.33;;
19861;SDS011;10093;48.148;8.542;2023-03-08T05:47:07;35.28;;;16.05;;
19861;SDS011;10093;48.148;8.542;2023-03-08T05:49:32;32.55;;;14.90;;
19861;SDS011;10093;48.148;8.542;2023-03-08T05:51:58;30.42;;;15.88;;
19861;SDS011;10093;48.148;8.542;2023-03-08T05:54:23;30.25;;;14.88;;
19861;SDS011;10093;48.148;8.542;2023-03-08T05:56:49;28.15;;;14.93;;
19861;SDS011;10093;48.148;8.542;2023-03-08T05:59:15;29.05;;;15.18;;
19861;SDS011;10093;48.148;8.542;2023-03-08T06:01:40;28.55;;;15.10;;
19861;SDS011;10093;48.148;8.542;2023-03-08T06:04:06;29.35;;;15.32;;
19861;SDS011;10093;48.148;8.542;2023-03-08T06:06:31;34.75;;;15.77;;
19861;SDS011;10093;48.148;8.542;2023-03-08T06:08:57;30.73;;;15.38;;
19861;SDS011;10093;48.148;8.542;2023-03-08T06:11:23;29.25;;;14.77;;
19861;SDS011;10093;48.148;8.542;2023-03-08T06:13:49;27.80;;;14.10;;
19861;SDS011;10093;48.148;8.542;2023-03-08T06:16:14;31.08;;;15.15;;
19861;SDS011;10093;48.148;8.542;2023-03-08T06:18:41;28.17;;;15.25;;
19861;SDS011;10093;48.148;8.542;2023-03-08T06:21:08;28.58;;;15.52;;
19861;SDS011;10093;48.148;8.542;2023-03-08T06:23:38;30.20;;;15.38;;
19861;SDS011;10093;48.148;8.542;2023-03-08T06:26:05;32.92;;;14.77;;
19861;SDS011;10093;48.148;8.542;2023-03-08T06:28:31;31.48;;;15.93;;
19861;SDS011;10093;48.148;8.542;2023-03-08T06:30:57;30.88;;;14.88;;
19861;SDS011;10093;48.148;8.542;2023-03-08T06:33:27;29.65;;;14.73;;
19861;SDS011;10093;48.148;8.542;2023-03-08T06:38:20;31.05;;;15.88;;
19861;SDS011;10093;48.148;8.542;2023-03-08T06:40:46;31.65;;;15.15;;
19861;SDS011;10093;48.148;8.542;2023-03-08T06:43:12;30.10;;;15.52;;
19861;SDS011;10093;48.148;8.542;2023-03-08T06:45:38;29.80;;;15.65;;
19861;SDS011;10093;48.148;8.542;2023-03-08T06:48:04;28.63;;;15.93;;
19861;SDS011;10093;48.148;8.542;2023-03-08T06:50:30;33.03;;;15.15;;
19861;SDS011;10093;48.148;8.542;2023-03-08T06:52:56;31.35;;;15.25;;
19861;SDS011;10093;48.148;8.542;2023-03-08T06:55:22;28.90;;;14.85;;
19861;SDS011;10093;48.148;8.542;2023-03-08T06:57:48;30.63;;;15.95;;
19861;SDS011;10093;48.148;8.542;2023-03-08T07:00:13;25.58;;;13.77;;
19861;SDS011;10093;48.148;8.542;2023-03-08T07:02:40;29.48;;;14.02;;
19861;SDS011;10093;48.148;8.542;2023-03-08T07:05:05;29.27;;;14.65;;
19861;SDS011;10093;48.148;8.542;2023-03-08T07:07:31;28.15;;;14.10;;
19861;SDS011;10093;48.148;8.542;2023-03-08T07:09:59;29.02;;;14.27;;
19861;SDS011;10093;48.148;8.542;2023-03-08T07:12:25;27.10;;;13.63;;
19861;SDS011;10093;48.148;8.542;2023-03-08T07:14:51;27.67;;;14.05;;
19861;SDS011;10093;48.148;8.542;2023-03-08T07:17:17;33.88;;;17.92;;
19861;SDS011;10093;48.148;8.542;2023-03-08T07:19:43;26.50;;;13.93;;
19861;SDS011;10093;48.148;8.542;2023-03-08T07:22:09;26.08;;;13.15;;
19861;SDS011;10093;48.148;8.542;2023-03-08T07:24:37;28.67;;;17.88;;
19861;SDS011;10093;48.148;8.542;2023-03-08T07:27:03;26.88;;;14.90;;
19861;SDS011;10093;48.148;8.542;2023-03-08T07:29:29;30.35;;;15.57;;
19861;SDS011;10093;48.148;8.542;2023-03-08T07:31:54;22.83;;;12.68;;
19861;SDS011;10093;48.148;8.542;2023-03-08T07:34:20;27.35;;;12.90;;
19861;SDS011;10093;48.148;8.542;2023-03-08T07:36:46;30.35;;;17.02;;
19861;SDS011;10093;48.148;8.542;2023-03-08T07:39:11;29.92;;;15.30;;
19861;SDS011;10093;48.148;8.542;2023-03-08T07:41:37;37.33;;;20.20;;
19861;SDS011;10093;48.148;8.542;2023-03-08T07:44:02;21.42;;;12.15;;
19861;SDS011;10093;48.148;8.542;2023-03-08T07:46:29;44.33;;;23.70;;
19861;SDS011;10093;48.148;8.542;2023-03-08T07:48:54;41.65;;;23.67;;
19861;SDS011;10093;48.148;8.542;2023-03-08T07:51:20;27.98;;;16.27;;
19861;SDS011;10093;48.148;8.542;2023-03-08T07:53:46;21.05;;;11.73;;
19861;SDS011;10093;48.148;8.542;2023-03-08T07:56:12;20.42;;;11.77;;
19861;SDS011;10093;48.148;8.542;2023-03-08T07:58:37;40.65;;;22.95;;
19861;SDS011;10093;48.148;8.542;2023-03-08T08:01:10;24.02;;;13.05;;
19861;SDS011;10093;48.148;8.542;2023-03-08T08:03:37;19.23;;;11.57;;
19861;SDS011;10093;48.148;8.542;2023-03-08T08:06:05;23.25;;;13.63;;
19861;SDS011;10093;48.148;8.542;2023-03-08T08:08:31;24.70;;;14.40;;
19861;SDS011;10093;48.148;8.542;2023-03-08T08:10:57;25.23;;;14.27;;
19861;SDS011;10093;48.148;8.542;2023-03-08T08:13:23;19.25;;;10.30;;
19861;SDS011;10093;48.148;8.542;2023-03-08T08:16:01;15.80;;;8.15;;
19861;SDS011;10093;48.148;8.542;2023-03-08T08:18:27;15.60;;;9.20;;
19861;SDS011;10093;48.148;8.542;2023-03-08T08:21:00;15.88;;;8.20;;
19861;SDS011;10093;48.148;8.542;2023-03-08T08:23:30;17.15;;;11.02;;
19861;SDS011;10093;48.148;8.542;2023-03-08T08:25:57;15.70;;;8.00;;
19861;SDS011;10093;48.148;8.542;2023-03-08T08:28:23;16.48;;;10.27;;
19861;SDS011;10093;48.148;8.542;2023-03-08T08:31:09;21.08;;;12.25;;
19861;SDS011;10093;48.148;8.542;2023-03-08T08:33:37;27.60;;;17.48;;
19861;SDS011;10093;48.148;8.542;2023-03-08T08:36:03;17.33;;;10.45;;
19861;SDS011;10093;48.148;8.542;2023-03-08T08:38:32;13.32;;;6.75;;
19861;SDS011;10093;48.148;8.542;2023-03-08T08:40:59;14.45;;;7.72;;
19861;SDS011;10093;48.148;8.542;2023-03-08T08:43:25;11.25;;;6.22;;
19861;SDS011;10093;48.148;8.542;2023-03-08T08:45:55;8.38;;;3.95;;
19861;SDS011;10093;48.148;8.542;2023-03-08T08:48:22;10.85;;;4.90;;
19861;SDS011;10093;48.148;8.542;2023-03-08T08:50:49;9.02;;;5.00;;
19861;SDS011;10093;48.148;8.542;2023-03-08T08:53:15;16.73;;;9.82;;
19861;SDS011;10093;48.148;8.542;2023-03-08T08:55:41;10.63;;;6.07;;
19861;SDS011;10093;48.148;8.542;2023-03-08T08:58:06;12.55;;;6.35;;
19861;SDS011;10093;48.148;8.542;2023-03-08T09:00:32;13.35;;;6.95;;
19861;SDS011;10093;48.148;8.542;2023-03-08T09:02:59;13.68;;;7.00;;
19861;SDS011;10093;48.148;8.542;2023-03-08T09:05:26;11.68;;;5.95;;
19861;SDS011;10093;48.148;8.542;2023-03-08T09:07:52;11.20;;;5.55;;
19861;SDS011;10093;48.148;8.542;2023-03-08T09:10:19;12.45;;;6.65;;
19861;SDS011;10093;48.148;8.542;2023-03-08T09:12:45;15.15;;;5.82;;
19861;SDS011;10093;48.148;8.542;2023-03-08T09:15:10;9.82;;;6.43;;
19861;SDS011;10093;48.148;8.542;2023-03-08T09:17:37;11.90;;;6.63;;
19861;SDS011;10093;48.148;8.542;2023-03-08T09:20:03;13.52;;;6.93;;
19861;SDS011;10093;48.148;8.542;2023-03-08T09:22:32;11.60;;;6.57;;
19861;SDS011;10093;48.148;8.542;2023-03-08T09:24:58;9.90;;;5.68;;
19861;SDS011;10093;48.148;8.542;2023-03-08T09:27:23;12.98;;;6.90;;
19861;SDS011;10093;48.148;8.542;2023-03-08T09:29:49;14.90;;;7.03;;
19861;SDS011;10093;48.148;8.542;2023-03-08T09:32:15;14.70;;;9.25;;
19861;SDS011;10093;48.148;8.542;2023-03-08T09:34:40;11.30;;;6.97;;
19861;SDS011;10093;48.148;8.542;2023-03-08T09:37:06;11.60;;;6.50;;
19861;SDS011;10093;48.148;8.542;2023-03-08T09:39:32;14.05;;;7.95;;
19861;SDS011;10093;48.148;8.542;2023-03-08T09:41:59;10.27;;;6.00;;
19861;SDS011;10093;48.148;8.542;2023-03-08T09:44:39;17.10;;;9.30;;
19861;SDS011;10093;48.148;8.542;2023-03-08T09:49:51;8.38;;;5.25;;
19861;SDS011;10093;48.148;8.542;2023-03-08T09:52:36;15.32;;;7.72;;
19861;SDS011;10093;48.148;8.542;2023-03-08T09:55:15;10.23;;;5.75;;
19861;SDS011;10093;48.148;8.542;2023-03-08T09:57:46;11.55;;;6.72;;
19861;SDS011;10093;48.148;8.542;2023-03-08T10:00:18;9.17;;;5.40;;
19861;SDS011;10093;48.148;8.542;2023-03-08T10:02:50;2.85;;;1.85;;
19861;SDS011;10093;48.148;8.542;2023-03-08T10:05:40;0.50;;;0.50;;
19861;SDS011;10093;48.148;8.542;2023-03-08T10:08:17;1.67;;;1.50;;
19861;SDS011;10093;48.148;8.542;2023-03-08T10:10:56;2.35;;;1.45;;
19861;SDS011;10093;48.148;8.542;2023-03-08T10:21:31;0.10;;;0.10;;
19861;SDS011;10093;48.148;8.542;2023-03-08T10:24:03;0.10;;;0.10;;
19861;SDS011;10093;48.148;8.542;2023-03-08T10:26:39;0.20;;;0.20;;
19861;SDS011;10093;48.148;8.542;2023-03-08T10:29:08;0.10;;;0.10;;
19861;SDS011;10093;48.148;8.542;2023-03-08T10:31:35;2.38;;;0.30;;
19861;SDS011;10093;48.148;8.542;2023-03-08T10:34:14;0.08;;;0.08;;
19861;SDS011;10093;48.148;8.542;2023-03-08T10:36:52;0.10;;;0.10;;
19861;SDS011;10093;48.148;8.542;2023-03-08T10:39:25;0.10;;;0.10;;
19861;SDS011;10093;48.148;8.542;2023-03-08T10:41:57;2.72;;;1.23;;
19861;SDS011;10093;48.148;8.542;2023-03-08T10:44:39;1.95;;;0.90;;
19861;SDS011;10093;48.148;8.542;2023-03-08T10:49:44;0.05;;;0.05;;
19861;SDS011;10093;48.148;8.542;2023-03-08T10:52:21;0.00;;;0.00;;
19861;SDS011;10093;48.148;8.542;2023-03-08T10:57:57;0.00;;;0.00;;
19861;SDS011;10093;48.148;8.542;2023-03-08T11:00:34;0.30;;;0.20;;
19861;SDS011;10093;48.148;8.542;2023-03-08T11:03:16;0.10;;;0.10;;
19861;SDS011;10093;48.148;8.542;2023-03-08T11:05:59;3.30;;;0.00;;
19861;SDS011;10093;48.148;8.542;2023-03-08T11:08:31;1.20;;;0.20;;
19861;SDS011;10093;48.148;8.542;2023-03-08T11:13:31;0.15;;;0.05;;
19861;SDS011;10093;48.148;8.542;2023-03-08T11:27:13;0.00;;;0.00;;
19861;SDS011;10093;48.148;8.542;2023-03-08T11:32:53;0.00;;;0.00;;
19861;SDS011;10093;48.148;8.542;2023-03-08T11:45:54;0.10;;;0.10;;
19861;SDS011;10093;48.148;8.542;2023-03-08T11:48:31;0.55;;;0.47;;
19861;SDS011;10093;48.148;8.542;2023-03-08T11:51:21;0.50;;;0.50;;
19861;SDS011;10093;48.148;8.542;2023-03-08T11:53:53;2.33;;;2.15;;
19861;SDS011;10093;48.148;8.542;2023-03-08T12:07:18;0.25;;;0.25;;
19861;SDS011;10093;48.148;8.542;2023-03-08T12:10:41;0.35;;;0.22;;
19861;SDS011;10093;48.148;8.542;2023-03-08T12:12:42;0.10;;;0.10;;
19861;SDS011;10093;48.148;8.542;2023-03-08T12:17:53;0.17;;;0.10;;
19861;SDS011;10093;48.148;8.542;2023-03-08T12:20:28;0.10;;;0.10;;
19861;SDS011;10093;48.148;8.542;2023-03-08T12:23:46;0.30;;;0.20;;
19861;SDS011;10093;48.148;8.542;2023-03-08T12:26:08;0.73;;;0.63;;
19861;SDS011;10093;48.148;8.542;2023-03-08T12:28:42;0.47;;;0.30;;
19861;SDS011;10093;48.148;8.542;2023-03-08T12:31:20;0.93;;;0.80;;
19861;SDS011;10093;48.148;8.542;2023-03-08T12:33:52;2.97;;;0.25;;
19861;SDS011;10093;48.148;8.542;2023-03-08T12:36:19;0.52;;;0.20;;
19861;SDS011;10093;48.148;8.542;2023-03-08T12:38:46;0.85;;;0.85;;
19861;SDS011;10093;48.148;8.542;2023-03-08T12:41:29;0.10;;;0.10;;
19861;SDS011;10093;48.148;8.542;2023-03-08T12:46:49;0.98;;;0.10;;
19861;SDS011;10093;48.148;8.542;2023-03-08T12:49:24;1.23;;;1.00;;
19861;SDS011;10093;48.148;8.542;2023-03-08T12:51:57;1.50;;;0.98;;
19861;SDS011;10093;48.148;8.542;2023-03-08T12:54:42;2.08;;;0.30;;
19861;SDS011;10093;48.148;8.542;2023-03-08T12:57:27;0.47;;;0.40;;
19861;SDS011;10093;48.148;8.542;2023-03-08T13:00:03;0.20;;;0.20;;
19861;SDS011;10093;48.148;8.542;2023-03-08T13:02:57;0.40;;;0.22;;
19861;SDS011;10093;48.148;8.542;2023-03-08T13:05:30;1.05;;;0.95;;
19861;SDS011;10093;48.148;8.542;2023-03-08T13:08:13;0.10;;;0.10;;
19861;SDS011;10093;48.148;8.542;2023-03-08T13:11:07;4.60;;;4.20;;
19861;SDS011;10093;48.148;8.542;2023-03-08T13:13:55;6.10;;;5.15;;
19861;SDS011;10093;48.148;8.542;2023-03-08T13:16:37;2.28;;;1.40;;
19861;SDS011;10093;48.148;8.542;2023-03-08T13:21:39;0.10;;;0.10;;
19861;SDS011;10093;48.148;8.542;2023-03-08T13:24:14;0.30;;;0.10;;
19861;SDS011;10093;48.148;8.542;2023-03-08T13:26:59;1.42;;;1.33;;
19861;SDS011;10093;48.148;8.542;2023-03-08T13:29:34;2.40;;;0.77;;
19861;SDS011;10093;48.148;8.542;2023-03-08T13:32:04;0.60;;;0.50;;
19861;SDS011;10093;48.148;8.542;2023-03-08T13:34:36;3.80;;;1.40;;
19861;SDS011;10093;48.148;8.542;2023-03-08T13:37:02;0.40;;;0.30;;
19861;SDS011;10093;48.148;8.542;2023-03-08T13:39:28;0.93;;;0.52;;
19861;SDS011;10093;48.148;8.542;2023-03-08T13:42:05;1.02;;;0.17;;
19861;SDS011;10093;48.148;8.542;2023-03-08T13:44:35;1.02;;;0.30;;
19861;SDS011;10093;48.148;8.542;2023-03-08T13:47:02;0.57;;;0.30;;
19861;SDS011;10093;48.148;8.542;2023-03-08T13:49:39;0.30;;;0.30;;
19861;SDS011;10093;48.148;8.542;2023-03-08T13:52:14;1.23;;;0.10;;
19861;SDS011;10093;48.148;8.542;2023-03-08T13:54:44;0.63;;;0.20;;
19861;SDS011;10093;48.148;8.542;2023-03-08T13:57:25;0.43;;;0.20;;
19861;SDS011;10093;48.148;8.542;2023-03-08T13:59:54;0.65;;;0.20;;
19861;SDS011;10093;48.148;8.542;2023-03-08T14:02:22;0.30;;;0.20;;
19861;SDS011;10093;48.148;8.542;2023-03-08T14:04:51;0.77;;;0.30;;
19861;SDS011;10093;48.148;8.542;2023-03-08T14:07:19;1.05;;;0.40;;
19861;SDS011;10093;48.148;8.542;2023-03-08T14:09:48;1.58;;;0.28;;
19861;SDS011;10093;48.148;8.542;2023-03-08T14:12:15;0.82;;;0.30;;
19861;SDS011;10093;48.148;8.542;2023-03-08T14:14:43;1.48;;;0.40;;
19861;SDS011;10093;48.148;8.542;2023-03-08T14:17:23;1.17;;;0.50;;
19861;SDS011;10093;48.148;8.542;2023-03-08T14:19:53;2.17;;;0.30;;
19861;SDS011;10093;48.148;8.542;2023-03-08T14:22:21;1.05;;;0.40;;
19861;SDS011;10093;48.148;8.542;2023-03-08T14:24:58;1.95;;;0.40;;
19861;SDS011;10093;48.148;8.542;2023-03-08T14:27:41;1.15;;;0.50;;
19861;SDS011;10093;48.148;8.542;2023-03-08T14:33:45;1.45;;;0.40;;
19861;SDS011;10093;48.148;8.542;2023-03-08T14:35:42;1.20;;;0.43;;
19861;SDS011;10093;48.148;8.542;2023-03-08T14:40:47;1.45;;;0.70;;
19861;SDS011;10093;48.148;8.542;2023-03-08T14:43:15;4.90;;;0.60;;
19861;SDS011;10093;48.148;8.542;2023-03-08T14:48:44;2.88;;;1.92;;
19861;SDS011;10093;48.148;8.542;2023-03-08T14:51:26;3.90;;;1.55;;
19861;SDS011;10093;48.148;8.542;2023-03-08T14:53:59;0.93;;;0.60;;
19861;SDS011;10093;48.148;8.542;2023-03-08T14:56:27;4.85;;;0.75;;
19861;SDS011;10093;48.148;8.542;2023-03-08T14:58:54;3.75;;;0.77;;
19861;SDS011;10093;48.148;8.542;2023-03-08T15:03:54;0.90;;;0.40;;
19861;SDS011;10093;48.148;8.542;2023-03-08T15:06:21;5.28;;;2.47;;
19861;SDS011;10093;48.148;8.542;2023-03-08T15:08:49;16.00;;;6.97;;
19861;SDS011;10093;48.148;8.542;2023-03-08T15:11:15;1.80;;;0.80;;
19861;SDS011;10093;48.148;8.542;2023-03-08T15:13:41;0.90;;;0.43;;
19861;SDS011;10093;48.148;8.542;2023-03-08T15:16:07;0.88;;;0.40;;
19861;SDS011;10093;48.148;8.542;2023-03-08T15:18:34;0.95;;;0.30;;
19861;SDS011;10093;48.148;8.542;2023-03-08T15:21:00;1.27;;;0.30;;
19861;SDS011;10093;48.148;8.542;2023-03-08T15:23:27;7.78;;;3.63;;
19861;SDS011;10093;48.148;8.542;2023-03-08T15:25:56;11.20;;;5.70;;
19861;SDS011;10093;48.148;8.542;2023-03-08T15:28:23;1.35;;;0.52;;
19861;SDS011;10093;48.148;8.542;2023-03-08T15:30:50;2.70;;;0.40;;
19861;SDS011;10093;48.148;8.542;2023-03-08T15:33:18;0.80;;;0.50;;
19861;SDS011;10093;48.148;8.542;2023-03-08T15:35:44;1.40;;;0.60;;
19861;SDS011;10093;48.148;8.542;2023-03-08T15:38:14;2.47;;;0.70;;
19861;SDS011;10093;48.148;8.542;2023-03-08T15:40:41;3.47;;;0.90;;
19861;SDS011;10093;48.148;8.542;2023-03-08T15:43:08;3.88;;;0.75;;
19861;SDS011;10093;48.148;8.542;2023-03-08T15:45:34;1.20;;;0.60;;
19861;SDS011;10093;48.148;8.542;2023-03-08T15:48:03;11.27;;;9.50;;
19861;SDS011;10093;48.148;8.542;2023-03-08T15:50:31;23.35;;;11.52;;
19861;SDS011;10093;48.148;8.542;2023-03-08T15:52:58;1.70;;;0.63;;
19861;SDS011;10093;48.148;8.542;2023-03-08T15:55:25;8.95;;;6.15;;
19861;SDS011;10093;48.148;8.542;2023-03-08T15:57:52;1.75;;;0.95;;
19861;SDS011;10093;48.148;8.542;2023-03-08T16:00:19;6.15;;;5.55;;
19861;SDS011;10093;48.148;8.542;2023-03-08T16:02:46;2.83;;;0.93;;
19861;SDS011;10093;48.148;8.542;2023-03-08T16:05:13;3.95;;;2.88;;
19861;SDS011;10093;48.148;8.542;2023-03-08T16:07:40;4.95;;;4.50;;